Time;durP1;ratioP1;P1;durP2;ratioP2;P2;SDS_P1;SDS_P2;PMS_P1;PMS_P2;Temp;Humidity;BMP_temperature;BMP_pressure;BME280_temperature;BME280_humidity;BME280_pressure;Samples;Min_cycle;Max_cycle;Signal;HPM_P1;HPM_P2
2021/03/09 00:01:24;;;;;;;3.80;2.40;;;21.70;30.60;;;;;;5032973;28;20403;-57
2021/03/09 00:03:50;;;;;;;4.37;2.43;;;21.70;30.50;;;;;;5033009;28;20395;-57
2021/03/09 00:06:15;;;;;;;5.32;2.33;;;21.70;30.40;;;;;;5033292;28;20478;-56
2021/03/09 00:08:41;;;;;;;4.97;2.47;;;21.70;30.60;;;;;;5033015;28;20403;-57
2021/03/09 00:11:06;;;;;;;3.20;2.28;;;21.70;30.50;;;;;;5033304;28;20481;-56
2021/03/09 00:13:32;;;;;;;3.93;2.20;;;21.60;30.40;;;;;;5032605;28;20471;-56
2021/03/09 00:15:58;;;;;;;3.28;2.38;;;21.60;30.30;;;;;;5033010;28;20435;-56
2021/03/09 00:18:23;;;;;;;3.57;2.40;;;21.60;30.40;;;;;;5032864;28;20387;-56
2021/03/09 00:20:49;;;;;;;3.40;2.30;;;21.60;30.30;;;;;;5031683;28;20403;-57
2021/03/09 00:23:14;;;;;;;2.90;2.07;;;21.60;30.30;;;;;;5033180;28;20387;-57
2021/03/09 00:25:40;;;;;;;2.92;2.10;;;21.60;30.40;;;;;;5032375;28;20875;-56
2021/03/09 00:28:06;;;;;;;3.23;2.13;;;21.60;30.30;;;;;;5032366;28;20414;-57
2021/03/09 00:30:31;;;;;;;3.58;2.50;;;21.60;30.30;;;;;;5032246;28;20451;-57
2021/03/09 00:32:57;;;;;;;3.70;2.10;;;21.60;30.30;;;;;;5032649;28;20415;-57
2021/03/09 00:35:23;;;;;;;2.83;2.03;;;21.50;30.30;;;;;;5031132;28;20422;-56
2021/03/09 00:37:48;;;;;;;3.33;2.27;;;21.50;30.30;;;;;;5032425;28;20498;-57
2021/03/09 00:40:14;;;;;;;3.17;2.10;;;21.50;30.20;;;;;;5032620;28;20419;-57
2021/03/09 00:42:40;;;;;;;3.10;2.03;;;21.50;30.20;;;;;;5031399;28;20395;-56
2021/03/09 00:45:06;;;;;;;3.65;2.22;;;21.50;30.20;;;;;;5032589;28;20743;-56
2021/03/09 00:47:31;;;;;;;3.72;2.10;;;21.50;30.20;;;;;;5030717;28;20390;-57
2021/03/09 00:49:58;;;;;;;3.03;2.17;;;21.50;30.30;;;;;;5032132;28;21014;-56
2021/03/09 00:52:24;;;;;;;3.00;2.10;;;21.50;30.20;;;;;;5032494;28;20390;-56
2021/03/09 00:54:50;;;;;;;3.13;2.20;;;21.50;30.10;;;;;;5032289;28;20391;-57
2021/03/09 00:57:16;;;;;;;2.60;2.10;;;21.50;30.10;;;;;;5032175;28;20442;-56
2021/03/09 00:59:41;;;;;;;2.55;1.95;;;21.50;30.00;;;;;;5031150;28;20946;-56
2021/03/09 01:02:07;;;;;;;2.95;2.17;;;21.50;30.00;;;;;;5031899;28;20391;-57
2021/03/09 01:04:33;;;;;;;2.90;2.10;;;21.50;30.00;;;;;;5031968;28;20437;-56
2021/03/09 01:06:58;;;;;;;2.55;1.77;;;21.50;30.00;;;;;;5030901;28;20748;-56
2021/03/09 01:09:24;;;;;;;2.83;2.03;;;21.50;30.00;;;;;;5031741;28;20415;-57
2021/03/09 01:11:50;;;;;;;2.67;2.05;;;21.50;30.00;;;;;;5031745;28;20552;-57
2021/03/09 01:14:15;;;;;;;2.58;2.00;;;21.50;30.00;;;;;;5032054;28;20387;-56
2021/03/09 01:16:41;;;;;;;2.40;2.00;;;21.40;30.00;;;;;;5031882;28;20470;-57
2021/03/09 01:19:07;;;;;;;2.83;1.95;;;21.40;30.00;;;;;;5031761;28;20396;-57
2021/03/09 01:21:32;;;;;;;2.70;1.90;;;21.40;30.00;;;;;;5031439;28;20393;-57
2021/03/09 01:23:58;;;;;;;2.88;2.03;;;21.40;30.00;;;;;;5031872;28;20399;-56
2021/03/09 01:26:24;;;;;;;2.47;1.83;;;21.40;30.00;;;;;;5031829;28;20453;-57
2021/03/09 01:28:49;;;;;;;3.03;1.90;;;21.40;30.00;;;;;;5031578;28;20423;-57
2021/03/09 01:31:15;;;;;;;2.80;2.00;;;21.40;30.00;;;;;;5031347;28;20542;-56
2021/03/09 01:33:41;;;;;;;2.70;1.90;;;21.40;30.00;;;;;;5031228;28;20403;-57
2021/03/09 01:36:07;;;;;;;2.33;1.80;;;21.40;30.00;;;;;;5031681;28;20458;-56
2021/03/09 01:38:33;;;;;;;2.38;1.80;;;21.30;29.90;;;;;;5031650;28;20478;-56
2021/03/09 01:40:59;;;;;;;2.40;1.80;;;21.30;29.90;;;;;;5031436;28;20402;-57
2021/03/09 01:43:25;;;;;;;2.40;1.80;;;21.30;29.90;;;;;;5031416;28;20395;-56
2021/03/09 01:45:50;;;;;;;2.70;1.90;;;21.30;29.90;;;;;;5031248;28;20425;-56
2021/03/09 01:48:21;;;;;;;2.10;1.83;;;21.30;29.90;;;;;;5031447;28;20443;-56
2021/03/09 01:50:48;;;;;;;2.30;1.80;;;21.30;29.90;;;;;;5031521;28;20886;-56
2021/03/09 01:53:14;;;;;;;2.40;1.98;;;21.30;29.80;;;;;;5031469;28;20383;-56
2021/03/09 01:55:40;;;;;;;2.80;1.90;;;21.30;29.80;;;;;;5030668;28;20397;-57
2021/03/09 01:58:11;;;;;;;2.50;1.70;;;21.30;29.80;;;;;;5030072;28;20732;-57
2021/03/09 02:00:38;;;;;;;2.92;1.80;;;21.30;29.80;;;;;;5031223;28;20939;-56
2021/03/09 02:03:05;;;;;;;2.38;1.75;;;21.30;29.80;;;;;;5031171;28;20875;-56
2021/03/09 02:05:30;;;;;;;2.30;1.70;;;21.30;29.80;;;;;;5030900;28;20470;-57
2021/03/09 02:07:56;;;;;;;2.47;1.80;;;21.30;29.80;;;;;;5031266;28;20832;-56
2021/03/09 02:10:22;;;;;;;2.30;2.00;;;21.30;29.70;;;;;;5031445;28;20485;-56
2021/03/09 02:13:25;;;;;;;2.30;1.90;;;21.30;29.80;;;;;;5031251;28;20926;-57
2021/03/09 02:16:16;;;;;;;2.28;1.80;;;21.20;29.70;;;;;;5030892;28;20387;-56
2021/03/09 02:19:11;;;;;;;2.72;1.80;;;21.20;29.70;;;;;;5030745;28;20409;-56
2021/03/09 02:22:27;;;;;;;2.58;2.10;;;21.20;29.70;;;;;;5030691;28;20402;-56
2021/03/09 02:25:23;;;;;;;2.17;1.73;;;21.20;29.70;;;;;;5006885;28;20415;-57
2021/03/09 02:28:07;;;;;;;2.40;1.70;;;21.20;29.60;;;;;;5029151;28;20406;-57
2021/03/09 02:30:37;;;;;;;2.50;1.80;;;21.20;29.60;;;;;;5029393;28;20509;-56
2021/03/09 02:33:21;;;;;;;2.30;1.80;;;21.20;29.60;;;;;;5030669;28;20474;-56
2021/03/09 02:36:06;;;;;;;2.35;1.70;;;21.20;29.60;;;;;;5030615;28;20391;-56
2021/03/09 02:38:51;;;;;;;2.83;1.80;;;21.20;29.40;;;;;;5031051;28;20406;-56
2021/03/09 02:41:23;;;;;;;2.28;1.70;;;21.20;29.40;;;;;;5031152;28;20558;-56
2021/03/09 02:43:53;;;;;;;2.60;1.80;;;21.20;29.50;;;;;;5030539;28;20395;-57
2021/03/09 02:46:21;;;;;;;2.75;2.05;;;21.20;29.50;;;;;;5030860;28;20391;-57
2021/03/09 02:48:47;;;;;;;2.45;1.90;;;21.20;29.40;;;;;;5030942;28;20422;-56
2021/03/09 02:51:13;;;;;;;2.28;1.80;;;21.20;29.40;;;;;;5030979;28;20383;-57
2021/03/09 02:53:49;;;;;;;2.90;1.80;;;21.20;29.40;;;;;;5033790;28;20382;-56
2021/03/09 02:56:16;;;;;;;2.20;1.65;;;21.20;29.90;;;;;;5034437;28;20450;-56
2021/03/09 02:58:45;;;;;;;2.20;1.60;;;21.20;29.40;;;;;;5034502;28;20429;-56
2021/03/09 03:01:11;;;;;;;2.27;1.87;;;21.20;29.40;;;;;;5034601;28;20391;-56
2021/03/09 03:03:42;;;;;;;2.08;1.60;;;21.20;29.40;;;;;;5033507;28;20402;-57
2021/03/09 03:06:08;;;;;;;2.50;1.80;;;21.20;29.40;;;;;;5034479;28;20379;-57
2021/03/09 03:08:36;;;;;;;2.45;1.95;;;21.20;29.40;;;;;;5034135;28;20410;-57
2021/03/09 03:11:03;;;;;;;2.40;1.90;;;21.20;29.30;;;;;;5034396;28;20392;-56
2021/03/09 03:13:31;;;;;;;2.30;1.83;;;21.20;29.30;;;;;;5034153;28;20470;-56
2021/03/09 03:15:58;;;;;;;2.33;1.80;;;21.20;29.30;;;;;;5034201;28;20427;-57
2021/03/09 03:18:26;;;;;;;2.35;1.77;;;21.20;29.80;;;;;;5034164;28;20789;-56
2021/03/09 03:20:52;;;;;;;2.53;1.88;;;21.20;29.30;;;;;;5033979;28;20437;-56
2021/03/09 03:23:21;;;;;;;2.50;1.90;;;21.20;29.30;;;;;;5034061;28;20387;-56
2021/03/09 03:25:51;;;;;;;2.88;2.03;;;21.20;29.30;;;;;;5033471;28;20473;-56
2021/03/09 03:28:16;;;;;;;2.35;1.88;;;21.20;29.20;;;;;;5033913;28;20422;-56
2021/03/09 03:30:42;;;;;;;2.22;1.70;;;21.10;29.30;;;;;;5033570;28;20403;-56
2021/03/09 03:33:09;;;;;;;2.53;1.98;;;21.10;29.30;;;;;;5033871;28;20409;-57
2021/03/09 03:35:35;;;;;;;2.45;1.73;;;21.10;29.30;;;;;;5032710;28;20470;-57
2021/03/09 03:38:01;;;;;;;2.60;1.83;;;21.20;29.30;;;;;;5033695;28;20469;-57
2021/03/09 03:40:28;;;;;;;2.33;1.70;;;21.10;29.20;;;;;;5033625;28;20395;-56
2021/03/09 03:42:53;;;;;;;2.50;1.80;;;21.10;29.20;;;;;;5033908;28;20774;-56
2021/03/09 03:45:21;;;;;;;2.33;1.70;;;21.10;29.20;;;;;;5033632;28;20383;-56
2021/03/09 03:47:48;;;;;;;2.80;1.90;;;21.10;29.20;;;;;;5032786;28;20747;-56
2021/03/09 03:50:16;;;;;;;2.30;1.60;;;21.10;29.20;;;;;;5033291;28;20418;-56
2021/03/09 03:52:47;;;;;;;3.00;1.90;;;21.10;29.30;;;;;;5033789;28;20482;-56
2021/03/09 03:55:40;;;;;;;2.38;1.80;;;21.10;29.20;;;;;;5033445;28;20418;-57
2021/03/09 03:58:33;;;;;;;2.40;1.90;;;21.10;29.20;;;;;;5033484;28;20875;-57
2021/03/09 04:01:00;;;;;;;2.30;1.90;;;21.10;29.60;;;;;;5033025;28;20503;-56
2021/03/09 04:03:29;;;;;;;1.85;1.65;;;21.10;29.10;;;;;;5032223;28;20395;-56
2021/03/09 04:05:57;;;;;;;2.17;1.70;;;21.10;29.10;;;;;;5033090;28;20448;-56
2021/03/09 04:08:23;;;;;;;2.80;2.00;;;21.10;29.20;;;;;;5032591;28;20437;-57
2021/03/09 04:10:50;;;;;;;3.10;1.93;;;21.20;29.20;;;;;;5032466;28;20403;-56
2021/03/09 04:13:17;;;;;;;2.60;1.90;;;21.20;29.40;;;;;;5032286;28;20384;-57
2021/03/09 04:15:43;;;;;;;4.50;2.07;;;21.20;29.40;;;;;;5030501;28;20399;-57
2021/03/09 04:18:11;;;;;;;2.90;2.10;;;21.30;29.60;;;;;;5032709;28;20423;-56
2021/03/09 04:20:41;;;;;;;2.85;2.17;;;21.40;29.20;;;;;;5032617;28;20442;-57
2021/03/09 04:23:07;;;;;;;3.50;2.60;;;21.30;29.30;;;;;;5024415;28;20404;-56
2021/03/09 04:25:34;;;;;;;3.33;2.50;;;21.30;29.50;;;;;;5020273;28;20383;-57
2021/03/09 04:28:04;;;;;;;4.03;2.30;;;21.30;29.80;;;;;;5012232;28;20757;-58
2021/03/09 04:30:31;;;;;;;3.80;2.30;;;21.40;30.40;;;;;;5011582;28;20404;-56
2021/03/09 04:32:57;;;;;;;4.97;2.25;;;21.40;30.50;;;;;;5013003;28;20475;-57
2021/03/09 04:35:23;;;;;;;5.13;2.50;;;21.40;30.50;;;;;;5012580;28;20523;-56
2021/03/09 04:37:50;;;;;;;4.22;2.40;;;21.50;30.40;;;;;;5011184;28;20472;-56
2021/03/09 04:40:16;;;;;;;10.50;2.55;;;21.50;30.40;;;;;;5012265;28;20389;-57
2021/03/09 04:42:42;;;;;;;5.10;2.40;;;21.50;30.60;;;;;;5012664;28;20400;-56
2021/03/09 04:45:09;;;;;;;4.63;2.40;;;21.60;30.80;;;;;;5012773;28;20389;-56
2021/03/09 04:47:35;;;;;;;6.87;2.20;;;21.60;31.10;;;;;;5011607;28;20941;-57
2021/03/09 04:50:01;;;;;;;6.35;2.20;;;21.60;30.80;;;;;;5015191;28;20425;-57
2021/03/09 04:52:27;;;;;;;4.05;2.30;;;21.60;30.60;;;;;;5023090;28;20397;-57
2021/03/09 04:54:54;;;;;;;4.30;2.30;;;21.50;30.50;;;;;;5021178;28;20761;-57
2021/03/09 04:57:37;;;;;;;3.40;2.40;;;21.50;30.50;;;;;;5023042;28;20429;-57
2021/03/09 05:00:24;;;;;;;3.45;2.20;;;21.40;30.10;;;;;;5032369;28;20419;-57
2021/03/09 05:02:51;;;;;;;3.00;2.15;;;21.40;29.60;;;;;;5031625;28;20395;-57
2021/03/09 05:05:19;;;;;;;3.50;2.20;;;21.30;29.90;;;;;;5031869;28;20482;-57
2021/03/09 05:07:45;;;;;;;6.93;2.55;;;21.30;30.00;;;;;;5016325;28;20393;-58
2021/03/09 05:10:12;;;;;;;5.63;2.42;;;21.30;29.90;;;;;;5012113;28;20499;-57
2021/03/09 05:12:43;;;;;;;5.70;2.30;;;21.20;30.10;;;;;;5027001;28;20411;-57
2021/03/09 05:15:10;;;;;;;6.97;2.40;;;21.20;30.40;;;;;;5011642;28;20407;-57
2021/03/09 05:17:35;;;;;;;5.55;2.10;;;21.20;30.30;;;;;;5011868;28;20434;-58
2021/03/09 05:20:02;;;;;;;4.47;2.00;;;21.20;30.20;;;;;;5011781;28;20401;-57
2021/03/09 05:22:28;;;;;;;4.70;2.20;;;21.20;30.10;;;;;;5012004;28;20896;-58
2021/03/09 05:24:53;;;;;;;4.27;2.00;;;21.20;30.00;;;;;;5010274;28;20396;-57
2021/03/09 05:27:19;;;;;;;3.50;2.10;;;21.20;29.90;;;;;;5011559;28;20405;-58
2021/03/09 05:29:45;;;;;;;4.47;2.27;;;21.20;29.80;;;;;;5011503;28;20425;-57
2021/03/09 05:32:10;;;;;;;4.45;1.90;;;21.20;29.80;;;;;;5016440;28;20404;-59
2021/03/09 05:34:36;;;;;;;3.73;2.10;;;21.20;29.70;;;;;;5022084;28;20397;-58
2021/03/09 05:37:02;;;;;;;3.75;2.05;;;21.20;29.70;;;;;;5020468;28;20432;-58
2021/03/09 05:39:28;;;;;;;3.83;1.90;;;21.20;29.80;;;;;;5020431;28;20754;-58
2021/03/09 05:41:53;;;;;;;3.33;2.13;;;21.20;29.70;;;;;;5020102;28;20424;-57
2021/03/09 05:44:19;;;;;;;4.88;2.10;;;21.20;29.70;;;;;;5020187;28;20847;-57
2021/03/09 05:46:45;;;;;;;4.25;2.00;;;21.10;29.70;;;;;;5022044;28;20400;-57
2021/03/09 05:49:11;;;;;;;3.17;1.90;;;21.10;29.60;;;;;;5031550;28;20472;-57
2021/03/09 05:51:37;;;;;;;4.83;2.10;;;21.10;29.60;;;;;;5023422;28;20399;-57
2021/03/09 05:54:03;;;;;;;5.10;2.20;;;21.20;29.70;;;;;;5024283;28;20451;-57
2021/03/09 05:56:29;;;;;;;4.70;2.30;;;21.20;29.70;;;;;;5017379;28;20401;-58
2021/03/09 05:58:54;;;;;;;5.53;2.30;;;21.20;30.10;;;;;;5028347;28;20434;-57
2021/03/09 06:01:20;;;;;;;7.93;2.40;;;21.10;29.80;;;;;;5016587;28;20379;-58
2021/03/09 06:03:46;;;;;;;4.80;2.30;;;21.10;29.90;;;;;;5022267;28;20416;-57
2021/03/09 06:06:13;;;;;;;6.78;2.20;;;21.10;30.20;;;;;;5026163;28;20389;-57
2021/03/09 06:08:39;;;;;;;6.07;2.40;;;21.10;30.00;;;;;;5010691;28;20415;-58
2021/03/09 06:11:18;;;;;;;5.57;1.98;;;21.10;30.00;;;;;;5011632;28;20400;-57
2021/03/09 06:13:44;;;;;;;5.53;1.90;;;21.20;30.00;;;;;;5010995;28;20393;-57
2021/03/09 06:16:11;;;;;;;4.18;2.22;;;21.10;29.90;;;;;;5011564;28;20403;-57
2021/03/09 06:18:37;;;;;;;3.63;1.85;;;21.10;30.00;;;;;;5011355;28;20392;-57
2021/03/09 06:21:15;;;;;;;5.57;2.22;;;21.20;30.00;;;;;;5011913;28;20385;-57
2021/03/09 06:23:43;;;;;;;4.25;1.95;;;21.10;30.00;;;;;;5010974;28;20397;-57
2021/03/09 06:26:37;;;;;;;3.03;1.80;;;21.10;30.00;;;;;;5011477;28;20457;-57
2021/03/09 06:29:13;;;;;;;3.53;1.80;;;21.10;29.90;;;;;;5015299;28;20419;-57
2021/03/09 06:32:03;;;;;;;3.42;2.08;;;21.10;29.80;;;;;;5014880;28;20412;-57
2021/03/09 06:34:33;;;;;;;3.90;2.25;;;21.10;29.80;;;;;;5010026;28;20891;-57
2021/03/09 06:37:24;;;;;;;3.50;2.00;;;21.10;29.80;;;;;;5015204;28;20537;-57
2021/03/09 06:39:55;;;;;;;4.13;2.20;;;21.10;29.70;;;;;;5014716;28;20476;-57
2021/03/09 06:42:30;;;;;;;4.38;2.08;;;21.10;29.70;;;;;;5015072;28;20884;-57
2021/03/09 06:44:57;;;;;;;3.85;1.90;;;21.10;29.70;;;;;;5015240;28;20753;-57
2021/03/09 06:47:37;;;;;;;3.03;2.10;;;21.10;29.70;;;;;;5015130;28;20399;-57
2021/03/09 06:50:11;;;;;;;4.68;2.42;;;21.10;29.70;;;;;;5014678;28;20420;-57
2021/03/09 06:52:38;;;;;;;4.03;2.20;;;21.10;29.60;;;;;;5014935;28;20872;-58
2021/03/09 06:55:06;;;;;;;3.08;2.08;;;21.10;29.60;;;;;;5014851;28;20500;-58
2021/03/09 06:57:32;;;;;;;3.13;2.00;;;21.10;29.50;;;;;;5014511;28;20876;-57
2021/03/09 06:59:57;;;;;;;3.60;2.30;;;21.10;29.50;;;;;;5013173;28;20405;-58
2021/03/09 07:02:24;;;;;;;3.53;2.45;;;21.10;29.50;;;;;;5029917;28;20455;-58
2021/03/09 07:05:06;;;;;;;4.38;2.60;;;21.10;29.50;;;;;;5014607;28;20397;-58
2021/03/09 07:07:34;;;;;;;3.53;2.20;;;21.00;29.90;;;;;;5013276;28;20408;-57
2021/03/09 07:10:10;;;;;;;4.05;2.30;;;21.00;29.40;;;;;;5012745;28;20931;-57
2021/03/09 07:12:38;;;;;;;3.33;2.20;;;21.10;29.40;;;;;;5014516;28;20393;-57
2021/03/09 07:15:06;;;;;;;4.00;2.30;;;21.00;29.30;;;;;;5014514;28;20425;-57
2021/03/09 07:17:34;;;;;;;3.72;2.60;;;21.00;29.30;;;;;;5014224;28;20427;-57
2021/03/09 07:20:00;;;;;;;4.05;2.35;;;21.10;29.40;;;;;;5013904;28;20818;-57
2021/03/09 07:22:27;;;;;;;3.30;2.40;;;21.00;29.30;;;;;;5014294;28;20389;-57
2021/03/09 07:25:13;;;;;;;3.70;2.83;;;21.00;29.30;;;;;;5014233;28;20483;-57
2021/03/09 07:28:00;;;;;;;3.07;2.50;;;21.00;29.30;;;;;;5013971;28;20396;-57
2021/03/09 07:30:36;;;;;;;3.20;2.42;;;21.00;29.30;;;;;;5014126;28;20409;-58
2021/03/09 07:33:03;;;;;;;3.40;2.60;;;21.00;29.30;;;;;;5013065;28;20876;-57
2021/03/09 07:35:29;;;;;;;3.30;2.53;;;21.00;29.40;;;;;;5014029;28;20435;-57
2021/03/09 07:37:56;;;;;;;3.15;2.45;;;21.00;29.40;;;;;;5013287;28;20746;-57
2021/03/09 07:40:24;;;;;;;3.67;2.83;;;21.00;29.30;;;;;;5014184;28;20452;-57
2021/03/09 07:42:50;;;;;;;3.20;2.47;;;21.00;29.30;;;;;;5013946;28;20385;-57
2021/03/09 07:45:18;;;;;;;3.50;2.70;;;21.00;29.30;;;;;;5013873;28;20396;-57
2021/03/09 07:47:58;;;;;;;3.65;2.40;;;21.00;29.30;;;;;;5013368;28;20479;-57
2021/03/09 07:50:25;;;;;;;3.50;2.60;;;21.00;29.30;;;;;;5013752;28;20420;-57
2021/03/09 07:53:07;;;;;;;3.38;2.60;;;21.00;29.30;;;;;;5013716;28;20403;-57
2021/03/09 07:55:34;;;;;;;3.65;2.70;;;21.00;29.30;;;;;;5013660;28;20404;-57
2021/03/09 07:58:19;;;;;;;3.50;2.60;;;21.10;29.20;;;;;;5012967;28;20392;-57
2021/03/09 08:01:02;;;;;;;3.70;2.40;;;21.10;29.20;;;;;;5012313;28;20451;-57
2021/03/09 08:03:32;;;;;;;3.08;2.53;;;21.10;29.10;;;;;;5013770;28;20393;-57
2021/03/09 08:06:09;;;;;;;3.40;2.67;;;21.20;29.20;;;;;;5013325;28;20427;-57
2021/03/09 08:08:42;;;;;;;3.47;2.50;;;21.20;29.10;;;;;;5013415;28;20823;-57
2021/03/09 08:11:13;;;;;;;3.25;2.60;;;21.20;29.10;;;;;;5013528;28;20397;-57
2021/03/09 08:13:43;;;;;;;2.90;2.40;;;21.30;29.10;;;;;;5013179;28;20431;-57
2021/03/09 08:16:21;;;;;;;3.17;2.40;;;21.30;29.00;;;;;;5013442;28;20448;-57
2021/03/09 08:18:47;;;;;;;3.58;2.30;;;21.30;29.00;;;;;;5013332;28;20385;-57
2021/03/09 08:21:13;;;;;;;4.13;2.50;;;21.30;29.00;;;;;;5013290;28;20436;-57
2021/03/09 08:23:45;;;;;;;3.27;2.40;;;21.40;29.00;;;;;;5013166;28;20428;-57
2021/03/09 08:26:13;;;;;;;3.03;2.50;;;21.40;29.00;;;;;;5013229;28;20500;-57
2021/03/09 08:28:43;;;;;;;3.95;2.80;;;21.50;29.00;;;;;;5013048;28;20420;-57
2021/03/09 08:31:11;;;;;;;2.80;2.30;;;21.50;28.90;;;;;;5012988;28;20463;-57
2021/03/09 08:33:44;;;;;;;3.03;2.35;;;21.50;28.90;;;;;;5013038;28;20420;-57
2021/03/09 08:36:26;;;;;;;3.40;2.47;;;21.60;28.90;;;;;;5013017;28;20393;-58
2021/03/09 08:39:03;;;;;;;3.60;2.60;;;21.60;28.90;;;;;;5012872;28;20488;-58
2021/03/09 08:41:35;;;;;;;3.05;2.72;;;21.60;28.80;;;;;;5012813;28;20393;-57
2021/03/09 08:44:20;;;;;;;3.70;2.70;;;21.60;29.30;;;;;;5012122;28;20432;-57
2021/03/09 08:47:04;;;;;;;3.35;2.45;;;21.70;28.80;;;;;;5012540;28;20381;-57
2021/03/09 08:49:36;;;;;;;3.05;2.40;;;21.70;28.70;;;;;;5011892;28;20413;-57
2021/03/09 08:52:31;;;;;;;3.03;2.28;;;21.70;28.70;;;;;;5011040;28;20397;-57
2021/03/09 08:54:57;;;;;;;3.70;2.30;;;21.80;28.70;;;;;;5012517;28;20471;-57
2021/03/09 08:57:25;;;;;;;3.23;2.30;;;21.80;28.70;;;;;;5012659;28;20393;-57
2021/03/09 09:00:03;;;;;;;3.65;2.65;;;21.80;28.60;;;;;;5011870;28;20420;-57
2021/03/09 09:02:29;;;;;;;2.85;2.40;;;21.80;28.60;;;;;;5012525;28;20396;-57
2021/03/09 09:05:06;;;;;;;3.43;2.40;;;21.90;28.60;;;;;;5012567;28;20395;-58
2021/03/09 09:07:40;;;;;;;3.95;2.60;;;21.90;28.50;;;;;;5012416;28;20860;-57
2021/03/09 09:10:27;;;;;;;3.20;2.60;;;21.90;28.50;;;;;;5011883;28;20512;-57
2021/03/09 09:12:55;;;;;;;2.70;2.40;;;21.90;28.50;;;;;;5012460;28;20904;-57
2021/03/09 09:15:24;;;;;;;3.17;2.70;;;21.90;28.50;;;;;;5012328;28;20475;-57
2021/03/09 09:17:54;;;;;;;3.15;2.40;;;21.90;28.50;;;;;;5011637;28;20381;-58
2021/03/09 09:20:21;;;;;;;2.88;2.50;;;22.00;28.40;;;;;;5012134;28;20385;-58
2021/03/09 09:22:50;;;;;;;3.22;2.50;;;21.90;28.40;;;;;;5012206;28;20403;-57
2021/03/09 09:25:15;;;;;;;3.20;2.63;;;22.00;28.50;;;;;;5010909;28;20431;-57
2021/03/09 09:27:46;;;;;;;3.00;2.65;;;21.90;28.40;;;;;;5027365;28;20889;-57
2021/03/09 09:30:15;;;;;;;2.53;2.30;;;22.00;28.40;;;;;;5011829;28;20887;-57
2021/03/09 09:32:49;;;;;;;3.08;2.40;;;22.00;28.40;;;;;;5011995;28;20384;-57
2021/03/09 09:35:16;;;;;;;3.47;2.50;;;22.00;28.40;;;;;;5011997;28;20432;-57
2021/03/09 09:37:50;;;;;;;2.75;2.15;;;22.00;28.40;;;;;;5011947;28;20389;-57
2021/03/09 09:40:18;;;;;;;2.80;2.30;;;22.00;28.40;;;;;;5012356;28;20392;-57
2021/03/09 09:43:02;;;;;;;3.10;2.40;;;22.00;28.30;;;;;;5011933;28;20381;-57
2021/03/09 09:45:29;;;;;;;3.10;2.58;;;22.00;28.40;;;;;;5011914;28;20392;-57
2021/03/09 09:47:56;;;;;;;3.47;2.45;;;22.00;28.30;;;;;;5011348;28;20765;-58
2021/03/09 09:50:23;;;;;;;3.58;2.72;;;22.00;28.30;;;;;;5012164;28;20474;-57
2021/03/09 09:52:57;;;;;;;3.25;2.55;;;22.00;28.30;;;;;;5011807;28;20932;-57
2021/03/09 09:55:24;;;;;;;3.42;2.40;;;22.00;28.30;;;;;;5011883;28;20765;-58
2021/03/09 09:57:55;;;;;;;2.75;2.33;;;22.00;28.20;;;;;;5011229;28;20795;-57
2021/03/09 10:00:23;;;;;;;3.10;2.67;;;22.00;28.30;;;;;;5011327;28;20404;-57
2021/03/09 10:03:09;;;;;;;2.92;2.55;;;22.00;28.30;;;;;;5015189;28;20393;-58
2021/03/09 10:05:35;;;;;;;3.17;2.60;;;22.00;28.20;;;;;;5015842;28;20464;-57
2021/03/09 10:08:01;;;;;;;3.25;2.40;;;22.00;28.20;;;;;;5015281;28;20396;-57
2021/03/09 10:10:26;;;;;;;3.03;2.40;;;22.00;28.20;;;;;;5015737;28;20439;-57
2021/03/09 10:12:52;;;;;;;2.93;2.47;;;22.00;28.20;;;;;;5015622;28;20475;-57
2021/03/09 10:15:19;;;;;;;2.80;2.30;;;22.00;28.20;;;;;;5015560;28;20438;-57
2021/03/09 10:17:45;;;;;;;3.15;2.35;;;22.00;28.20;;;;;;5015247;28;20744;-57
2021/03/09 10:20:19;;;;;;;2.60;2.27;;;22.00;28.30;;;;;;5030565;28;20401;-57
2021/03/09 10:22:45;;;;;;;3.33;2.60;;;22.00;28.30;;;;;;5015329;28;20411;-57
2021/03/09 10:25:15;;;;;;;3.45;2.40;;;22.00;28.20;;;;;;5015442;28;20385;-57
2021/03/09 10:27:42;;;;;;;3.15;2.45;;;22.00;28.30;;;;;;5013940;28;20396;-57
2021/03/09 10:30:08;;;;;;;2.92;2.50;;;22.10;28.30;;;;;;5014753;28;20499;-57
2021/03/09 10:32:51;;;;;;;2.90;2.55;;;22.00;28.30;;;;;;5015348;28;20963;-57
2021/03/09 10:35:17;;;;;;;3.10;2.80;;;22.10;28.30;;;;;;5015480;28;20404;-57
2021/03/09 10:37:43;;;;;;;3.55;2.78;;;22.00;28.20;;;;;;5015234;28;20438;-57
2021/03/09 10:40:11;;;;;;;3.28;2.50;;;22.10;28.30;;;;;;5014812;28;20400;-57
2021/03/09 10:42:43;;;;;;;2.80;2.50;;;22.00;28.20;;;;;;5014994;28;20512;-57
2021/03/09 10:45:30;;;;;;;3.13;2.53;;;22.10;28.30;;;;;;5015061;28;20449;-57
2021/03/09 10:48:01;;;;;;;2.53;2.33;;;22.10;28.20;;;;;;5014481;28;20795;-57
2021/03/09 10:50:29;;;;;;;3.00;2.70;;;22.10;28.20;;;;;;5014903;28;20420;-57
2021/03/09 10:52:55;;;;;;;3.40;2.70;;;22.10;28.20;;;;;;5014968;28;20392;-57
2021/03/09 10:55:21;;;;;;;3.28;2.50;;;22.10;28.20;;;;;;5014948;28;20505;-57
2021/03/09 10:57:46;;;;;;;3.10;2.58;;;22.10;28.20;;;;;;5014728;28;20424;-57
2021/03/09 11:00:15;;;;;;;3.00;2.70;;;22.10;28.30;;;;;;5014424;28;20878;-57
2021/03/09 11:02:41;;;;;;;3.00;2.60;;;22.10;28.20;;;;;;5014576;28;20454;-57
2021/03/09 11:05:08;;;;;;;3.80;2.78;;;22.10;28.20;;;;;;5014794;28;20389;-57
2021/03/09 11:07:33;;;;;;;3.00;2.67;;;22.00;28.30;;;;;;5014607;28;20462;-57
2021/03/09 11:09:59;;;;;;;3.38;2.72;;;22.00;28.20;;;;;;5014191;28;20424;-57
2021/03/09 11:12:25;;;;;;;3.58;2.70;;;22.10;28.30;;;;;;5013990;28;20377;-57
2021/03/09 11:14:51;;;;;;;3.15;2.78;;;22.10;28.30;;;;;;5014262;28;20399;-57
2021/03/09 11:17:17;;;;;;;3.20;2.63;;;22.10;28.30;;;;;;5014025;28;20780;-57
2021/03/09 11:19:42;;;;;;;3.03;2.58;;;22.10;28.30;;;;;;5014405;28;20385;-57
2021/03/09 11:22:08;;;;;;;3.33;2.70;;;22.10;28.30;;;;;;5013817;28;20426;-57
2021/03/09 11:24:34;;;;;;;3.05;2.60;;;22.10;28.30;;;;;;5014350;28;20436;-57
2021/03/09 11:27:01;;;;;;;2.90;2.50;;;22.10;28.30;;;;;;5014286;28;20392;-57
2021/03/09 11:29:28;;;;;;;3.20;2.55;;;22.20;28.30;;;;;;5014477;28;20413;-57
2021/03/09 11:31:53;;;;;;;3.25;2.55;;;22.10;28.30;;;;;;5013578;28;20471;-57
2021/03/09 11:34:19;;;;;;;3.00;2.60;;;22.10;28.20;;;;;;5014268;28;20475;-57
2021/03/09 11:36:45;;;;;;;2.80;2.50;;;22.10;28.20;;;;;;5013900;28;20454;-57
2021/03/09 11:39:11;;;;;;;2.85;2.55;;;22.10;28.30;;;;;;5014117;28;20407;-57
2021/03/09 11:41:36;;;;;;;3.10;2.80;;;22.10;28.20;;;;;;5014137;28;20381;-57
2021/03/09 11:44:02;;;;;;;3.25;2.70;;;22.10;28.20;;;;;;5013587;28;20935;-57
2021/03/09 11:46:28;;;;;;;3.10;2.47;;;22.10;28.20;;;;;;5013882;28;20742;-57
2021/03/09 11:48:54;;;;;;;3.00;2.60;;;22.10;28.20;;;;;;5013898;28;20404;-57
2021/03/09 11:51:19;;;;;;;3.20;2.70;;;22.10;28.20;;;;;;5013906;28;20380;-57
2021/03/09 11:53:45;;;;;;;3.03;2.60;;;22.10;28.20;;;;;;5013830;28;20405;-57
2021/03/09 11:56:11;;;;;;;2.80;2.50;;;22.20;28.30;;;;;;5013331;28;20393;-57
2021/03/09 11:58:36;;;;;;;3.03;2.60;;;22.20;28.20;;;;;;5012544;28;20389;-57
2021/03/09 12:01:03;;;;;;;2.78;2.40;;;22.20;28.10;;;;;;5013761;28;20407;-57
2021/03/09 12:03:28;;;;;;;2.88;2.53;;;22.20;28.10;;;;;;5013343;28;20393;-57
2021/03/09 12:05:54;;;;;;;2.90;2.45;;;22.20;28.10;;;;;;5013183;28;20971;-57
2021/03/09 12:08:19;;;;;;;3.00;2.43;;;22.20;28.10;;;;;;5013711;28;20397;-57
2021/03/09 12:10:45;;;;;;;2.83;2.53;;;22.20;28.10;;;;;;5013600;28;21019;-57
2021/03/09 12:13:11;;;;;;;3.03;2.50;;;22.20;28.10;;;;;;5013519;28;20861;-57
2021/03/09 12:15:36;;;;;;;3.00;2.50;;;22.20;28.10;;;;;;5013386;28;20753;-57
2021/03/09 12:18:03;;;;;;;3.30;2.70;;;22.20;28.10;;;;;;5013100;28;20475;-57
2021/03/09 12:20:29;;;;;;;3.00;2.40;;;22.20;28.10;;;;;;5013252;28;20389;-57
2021/03/09 12:22:55;;;;;;;2.92;2.50;;;22.20;28.10;;;;;;5013340;28;20416;-57
2021/03/09 12:25:20;;;;;;;3.07;2.57;;;22.20;28.00;;;;;;5012322;28;20393;-57
2021/03/09 12:27:46;;;;;;;3.13;2.60;;;22.30;28.10;;;;;;5013230;28;20905;-57
2021/03/09 12:30:12;;;;;;;3.23;2.40;;;22.30;28.00;;;;;;5012465;28;20521;-57
2021/03/09 12:32:38;;;;;;;2.92;2.40;;;22.30;28.10;;;;;;5013118;28;20391;-57
2021/03/09 12:35:05;;;;;;;3.33;2.40;;;22.30;28.10;;;;;;5013111;28;20400;-57
2021/03/09 12:37:31;;;;;;;2.95;2.15;;;22.30;28.00;;;;;;5012984;28;20381;-57
2021/03/09 12:39:57;;;;;;;2.83;2.40;;;22.30;28.00;;;;;;5012761;28;20439;-57
2021/03/09 12:42:22;;;;;;;3.13;2.40;;;22.30;28.00;;;;;;5013077;28;20419;-57
2021/03/09 12:44:49;;;;;;;3.03;2.42;;;22.30;28.00;;;;;;5012944;28;20760;-57
2021/03/09 12:47:15;;;;;;;3.25;2.40;;;22.30;28.00;;;;;;5012940;28;20479;-57
2021/03/09 12:49:40;;;;;;;3.25;2.53;;;22.30;28.00;;;;;;5012238;28;20512;-57
2021/03/09 12:52:06;;;;;;;2.60;2.30;;;22.30;28.00;;;;;;5011826;28;20455;-57
2021/03/09 12:54:32;;;;;;;2.88;2.58;;;22.30;28.00;;;;;;5012663;28;20397;-57
2021/03/09 12:56:57;;;;;;;2.80;2.40;;;22.30;27.90;;;;;;5012725;28;20397;-57
2021/03/09 12:59:23;;;;;;;2.88;2.47;;;22.30;28.00;;;;;;5012657;28;20405;-57